sensor_id;sensor_type;location;lat;lon;timestamp;temperature;humidity
69324;DHT22;56470;47.350;8.718;2023-02-26T00:01:26;4.24;63.48
69324;DHT22;56470;47.350;8.718;2023-02-26T00:03:54;4.30;63.49
69324;DHT22;56470;47.350;8.718;2023-02-26T00:06:20;4.31;63.58
69324;DHT22;56470;47.350;8.718;2023-02-26T00:08:45;4.27;63.33
69324;DHT22;56470;47.350;8.718;2023-02-26T00:11:11;4.21;63.34
69324;DHT22;56470;47.350;8.718;2023-02-26T00:13:38;4.20;63.38
69324;DHT22;56470;47.350;8.718;2023-02-26T00:16:12;4.18;63.02
69324;DHT22;56470;47.350;8.718;2023-02-26T00:18:39;4.16;63.14
69324;DHT22;56470;47.350;8.718;2023-02-26T00:21:05;4.20;63.10
69324;DHT22;56470;47.350;8.718;2023-02-26T00:23:30;4.21;63.01
69324;DHT22;56470;47.350;8.718;2023-02-26T00:25:57;4.24;62.72
69324;DHT22;56470;47.350;8.718;2023-02-26T00:28:22;4.20;62.42
69324;DHT22;56470;47.350;8.718;2023-02-26T00:30:48;4.24;62.35
69324;DHT22;56470;47.350;8.718;2023-02-26T00:33:14;4.24;62.36
69324;DHT22;56470;47.350;8.718;2023-02-26T00:35:39;4.30;62.44
69324;DHT22;56470;47.350;8.718;2023-02-26T00:38:12;4.35;62.51
69324;DHT22;56470;47.350;8.718;2023-02-26T00:40:48;4.40;62.55
69324;DHT22;56470;47.350;8.718;2023-02-26T00:43:16;4.46;62.41
69324;DHT22;56470;47.350;8.718;2023-02-26T00:48:33;4.37;62.76
69324;DHT22;56470;47.350;8.718;2023-02-26T00:54:02;4.33;63.10
69324;DHT22;56470;47.350;8.718;2023-02-26T00:56:28;4.37;63.25
69324;DHT22;56470;47.350;8.718;2023-02-26T00:58:53;4.35;63.31
69324;DHT22;56470;47.350;8.718;2023-02-26T01:01:18;4.34;62.99
69324;DHT22;56470;47.350;8.718;2023-02-26T01:03:44;4.31;63.21
69324;DHT22;56470;47.350;8.718;2023-02-26T01:06:12;4.34;63.23
69324;DHT22;56470;47.350;8.718;2023-02-26T01:08:47;4.38;63.27
69324;DHT22;56470;47.350;8.718;2023-02-26T01:11:14;4.41;63.54
69324;DHT22;56470;47.350;8.718;2023-02-26T01:13:39;4.44;63.58
69324;DHT22;56470;47.350;8.718;2023-02-26T01:16:08;4.33;62.78
69324;DHT22;56470;47.350;8.718;2023-02-26T01:18:42;4.00;62.89
69324;DHT22;56470;47.350;8.718;2023-02-26T01:21:12;3.69;63.78
69324;DHT22;56470;47.350;8.718;2023-02-26T01:23:40;3.58;64.32
69324;DHT22;56470;47.350;8.718;2023-02-26T01:26:14;3.61;64.90
69324;DHT22;56470;47.350;8.718;2023-02-26T01:28:41;3.72;65.05
69324;DHT22;56470;47.350;8.718;2023-02-26T01:31:23;3.85;64.65
69324;DHT22;56470;47.350;8.718;2023-02-26T01:33:53;3.86;64.60
69324;DHT22;56470;47.350;8.718;2023-02-26T01:36:27;3.75;64.57
69324;DHT22;56470;47.350;8.718;2023-02-26T01:39:03;3.78;64.84
69324;DHT22;56470;47.350;8.718;2023-02-26T01:41:35;3.82;64.94
69324;DHT22;56470;47.350;8.718;2023-02-26T01:44:12;3.87;64.32
69324;DHT22;56470;47.350;8.718;2023-02-26T01:49:34;3.80;64.01
69324;DHT22;56470;47.350;8.718;2023-02-26T01:52:02;3.80;64.41
69324;DHT22;56470;47.350;8.718;2023-02-26T01:54:33;3.89;64.30
69324;DHT22;56470;47.350;8.718;2023-02-26T01:57:11;3.89;63.72
69324;DHT22;56470;47.350;8.718;2023-02-26T01:59:43;3.83;63.81
69324;DHT22;56470;47.350;8.718;2023-02-26T02:02:11;3.76;63.62
69324;DHT22;56470;47.350;8.718;2023-02-26T02:04:37;3.79;63.32
69324;DHT22;56470;47.350;8.718;2023-02-26T02:07:04;3.72;63.47
69324;DHT22;56470;47.350;8.718;2023-02-26T02:09:29;3.52;63.53
69324;DHT22;56470;47.350;8.718;2023-02-26T02:17:52;3.68;63.61
69324;DHT22;56470;47.350;8.718;2023-02-26T02:24:10;3.54;63.50
69324;DHT22;56470;47.350;8.718;2023-02-26T02:26:39;3.54;63.86
69324;DHT22;56470;47.350;8.718;2023-02-26T02:32:21;3.61;63.51
69324;DHT22;56470;47.350;8.718;2023-02-26T02:34:52;3.56;63.59
69324;DHT22;56470;47.350;8.718;2023-02-26T02:37:39;3.44;63.58
69324;DHT22;56470;47.350;8.718;2023-02-26T02:40:13;3.38;63.70
69324;DHT22;56470;47.350;8.718;2023-02-26T02:42:50;3.41;63.65
69324;DHT22;56470;47.350;8.718;2023-02-26T02:45:33;3.45;63.74
69324;DHT22;56470;47.350;8.718;2023-02-26T02:48:02;3.42;63.69
69324;DHT22;56470;47.350;8.718;2023-02-26T02:50:35;3.52;63.76
69324;DHT22;56470;47.350;8.718;2023-02-26T02:53:21;3.48;63.28
69324;DHT22;56470;47.350;8.718;2023-02-26T02:55:56;3.51;63.49
69324;DHT22;56470;47.350;8.718;2023-02-26T02:58:32;3.50;63.34
69324;DHT22;56470;47.350;8.718;2023-02-26T03:01:06;3.45;63.32
69324;DHT22;56470;47.350;8.718;2023-02-26T03:03:56;3.44;63.22
69324;DHT22;56470;47.350;8.718;2023-02-26T03:06:23;3.51;63.61
69324;DHT22;56470;47.350;8.718;2023-02-26T03:08:50;3.59;63.45
69324;DHT22;56470;47.350;8.718;2023-02-26T03:11:16;3.63;63.39
69324;DHT22;56470;47.350;8.718;2023-02-26T03:13:42;3.69;63.48
69324;DHT22;56470;47.350;8.718;2023-02-26T03:16:34;3.65;63.26
69324;DHT22;56470;47.350;8.718;2023-02-26T03:19:20;3.56;63.49
69324;DHT22;56470;47.350;8.718;2023-02-26T03:21:56;3.52;63.87
69324;DHT22;56470;47.350;8.718;2023-02-26T03:24:45;3.54;63.95
69324;DHT22;56470;47.350;8.718;2023-02-26T03:29:54;3.61;63.64
69324;DHT22;56470;47.350;8.718;2023-02-26T03:32:43;3.59;63.54
69324;DHT22;56470;47.350;8.718;2023-02-26T03:35:15;3.59;63.59
69324;DHT22;56470;47.350;8.718;2023-02-26T03:37:45;3.59;63.58
69324;DHT22;56470;47.350;8.718;2023-02-26T03:40:21;3.63;63.53
69324;DHT22;56470;47.350;8.718;2023-02-26T03:43:30;3.59;63.10
69324;DHT22;56470;47.350;8.718;2023-02-26T03:45:59;3.58;63.28
69324;DHT22;56470;47.350;8.718;2023-02-26T03:48:28;3.55;63.27
69324;DHT22;56470;47.350;8.718;2023-02-26T03:50:59;3.46;63.30
69324;DHT22;56470;47.350;8.718;2023-02-26T03:53:27;3.45;63.24
69324;DHT22;56470;47.350;8.718;2023-02-26T03:55:59;3.46;63.54
69324;DHT22;56470;47.350;8.718;2023-02-26T03:58:26;3.39;62.89
69324;DHT22;56470;47.350;8.718;2023-02-26T04:01:03;3.27;63.31
69324;DHT22;56470;47.350;8.718;2023-02-26T04:03:53;3.24;63.68
69324;DHT22;56470;47.350;8.718;2023-02-26T04:06:20;3.32;63.63
69324;DHT22;56470;47.350;8.718;2023-02-26T04:08:46;3.26;62.91
69324;DHT22;56470;47.350;8.718;2023-02-26T04:11:17;3.20;63.07
69324;DHT22;56470;47.350;8.718;2023-02-26T04:13:44;3.17;63.36
69324;DHT22;56470;47.350;8.718;2023-02-26T04:16:10;3.14;63.45
69324;DHT22;56470;47.350;8.718;2023-02-26T04:18:36;3.14;63.34
69324;DHT22;56470;47.350;8.718;2023-02-26T04:21:01;3.10;63.32
69324;DHT22;56470;47.350;8.718;2023-02-26T04:23:27;3.09;63.35
69324;DHT22;56470;47.350;8.718;2023-02-26T04:25:52;3.07;63.45
69324;DHT22;56470;47.350;8.718;2023-02-26T04:28:17;3.06;63.63
69324;DHT22;56470;47.350;8.718;2023-02-26T04:30:43;3.07;63.61
69324;DHT22;56470;47.350;8.718;2023-02-26T04:33:08;3.06;63.75
69324;DHT22;56470;47.350;8.718;2023-02-26T04:35:33;2.97;63.91
69324;DHT22;56470;47.350;8.718;2023-02-26T04:37:59;3.01;63.89
69324;DHT22;56470;47.350;8.718;2023-02-26T04:40:24;2.83;64.28
69324;DHT22;56470;47.350;8.718;2023-02-26T04:42:50;2.75;64.77
69324;DHT22;56470;47.350;8.718;2023-02-26T04:45:16;2.71;64.01
69324;DHT22;56470;47.350;8.718;2023-02-26T04:47:41;2.62;64.41
69324;DHT22;56470;47.350;8.718;2023-02-26T04:50:07;2.61;64.29
69324;DHT22;56470;47.350;8.718;2023-02-26T04:52:32;2.61;64.19
69324;DHT22;56470;47.350;8.718;2023-02-26T04:54:58;2.61;64.53
69324;DHT22;56470;47.350;8.718;2023-02-26T04:57:23;2.56;64.88
69324;DHT22;56470;47.350;8.718;2023-02-26T04:59:48;2.51;65.54
69324;DHT22;56470;47.350;8.718;2023-02-26T05:02:14;2.44;66.51
69324;DHT22;56470;47.350;8.718;2023-02-26T05:04:39;2.34;67.56
69324;DHT22;56470;47.350;8.718;2023-02-26T05:07:05;2.16;68.57
69324;DHT22;56470;47.350;8.718;2023-02-26T05:09:30;1.96;68.96
69324;DHT22;56470;47.350;8.718;2023-02-26T05:11:56;1.91;68.69
69324;DHT22;56470;47.350;8.718;2023-02-26T05:14:21;1.82;68.68
69324;DHT22;56470;47.350;8.718;2023-02-26T05:16:46;1.85;68.26
69324;DHT22;56470;47.350;8.718;2023-02-26T05:19:12;1.95;67.52
69324;DHT22;56470;47.350;8.718;2023-02-26T05:21:37;1.89;66.22
69324;DHT22;56470;47.350;8.718;2023-02-26T05:24:02;1.79;66.59
69324;DHT22;56470;47.350;8.718;2023-02-26T05:26:28;1.89;66.11
69324;DHT22;56470;47.350;8.718;2023-02-26T05:28:53;1.85;65.82
69324;DHT22;56470;47.350;8.718;2023-02-26T05:31:18;1.86;65.51
69324;DHT22;56470;47.350;8.718;2023-02-26T05:33:44;1.83;65.41
69324;DHT22;56470;47.350;8.718;2023-02-26T05:36:10;1.89;65.04
69324;DHT22;56470;47.350;8.718;2023-02-26T05:38:36;1.76;65.27
69324;DHT22;56470;47.350;8.718;2023-02-26T05:41:02;1.72;65.28
69324;DHT22;56470;47.350;8.718;2023-02-26T05:43:27;1.66;65.20
69324;DHT22;56470;47.350;8.718;2023-02-26T05:45:56;1.64;64.98
69324;DHT22;56470;47.350;8.718;2023-02-26T05:48:22;1.54;65.50
69324;DHT22;56470;47.350;8.718;2023-02-26T05:50:48;1.51;65.74
69324;DHT22;56470;47.350;8.718;2023-02-26T05:53:14;1.51;66.72
69324;DHT22;56470;47.350;8.718;2023-02-26T05:55:40;1.40;68.47
69324;DHT22;56470;47.350;8.718;2023-02-26T05:58:05;1.27;70.31
69324;DHT22;56470;47.350;8.718;2023-02-26T06:00:30;1.16;70.23
69324;DHT22;56470;47.350;8.718;2023-02-26T06:02:56;0.97;72.46
69324;DHT22;56470;47.350;8.718;2023-02-26T06:05:21;0.95;71.22
69324;DHT22;56470;47.350;8.718;2023-02-26T06:07:46;0.88;71.69
69324;DHT22;56470;47.350;8.718;2023-02-26T06:10:12;0.85;71.11
69324;DHT22;56470;47.350;8.718;2023-02-26T06:12:38;0.78;71.31
69324;DHT22;56470;47.350;8.718;2023-02-26T06:15:04;0.79;71.35
69324;DHT22;56470;47.350;8.718;2023-02-26T06:17:30;0.84;70.55
69324;DHT22;56470;47.350;8.718;2023-02-26T06:19:55;0.89;69.80
69324;DHT22;56470;47.350;8.718;2023-02-26T06:22:21;0.96;68.76
69324;DHT22;56470;47.350;8.718;2023-02-26T06:24:46;0.99;68.16
69324;DHT22;56470;47.350;8.718;2023-02-26T06:27:11;0.93;67.37
69324;DHT22;56470;47.350;8.718;2023-02-26T06:29:37;0.95;67.32
69324;DHT22;56470;47.350;8.718;2023-02-26T06:32:04;0.95;67.35
69324;DHT22;56470;47.350;8.718;2023-02-26T06:34:29;1.03;67.51
69324;DHT22;56470;47.350;8.718;2023-02-26T06:36:55;1.13;67.24
69324;DHT22;56470;47.350;8.718;2023-02-26T06:39:20;1.19;66.16
69324;DHT22;56470;47.350;8.718;2023-02-26T06:41:45;1.10;65.19
69324;DHT22;56470;47.350;8.718;2023-02-26T06:44:11;1.04;66.01
69324;DHT22;56470;47.350;8.718;2023-02-26T06:46:36;1.10;65.42
69324;DHT22;56470;47.350;8.718;2023-02-26T06:49:02;1.13;65.14
69324;DHT22;56470;47.350;8.718;2023-02-26T06:51:27;1.12;64.99
69324;DHT22;56470;47.350;8.718;2023-02-26T06:53:53;1.16;64.86
69324;DHT22;56470;47.350;8.718;2023-02-26T06:56:19;1.16;64.39
69324;DHT22;56470;47.350;8.718;2023-02-26T06:58:44;1.12;64.79
69324;DHT22;56470;47.350;8.718;2023-02-26T07:01:09;1.17;64.87
69324;DHT22;56470;47.350;8.718;2023-02-26T07:03:35;1.23;63.83
69324;DHT22;56470;47.350;8.718;2023-02-26T07:06:00;1.13;64.13
69324;DHT22;56470;47.350;8.718;2023-02-26T07:08:25;1.17;64.20
69324;DHT22;56470;47.350;8.718;2023-02-26T07:10:51;1.19;63.33
69324;DHT22;56470;47.350;8.718;2023-02-26T07:13:16;1.22;64.34
69324;DHT22;56470;47.350;8.718;2023-02-26T07:15:43;1.30;64.05
69324;DHT22;56470;47.350;8.718;2023-02-26T07:18:08;1.33;63.74
69324;DHT22;56470;47.350;8.718;2023-02-26T07:20:34;1.36;64.00
69324;DHT22;56470;47.350;8.718;2023-02-26T07:22:59;1.43;64.07
69324;DHT22;56470;47.350;8.718;2023-02-26T07:25:24;1.55;64.03
69324;DHT22;56470;47.350;8.718;2023-02-26T07:27:50;1.64;63.65
69324;DHT22;56470;47.350;8.718;2023-02-26T07:30:16;1.78;62.87
69324;DHT22;56470;47.350;8.718;2023-02-26T07:32:42;1.71;62.16
69324;DHT22;56470;47.350;8.718;2023-02-26T07:35:07;1.59;62.37
69324;DHT22;56470;47.350;8.718;2023-02-26T07:37:33;1.58;62.06
69324;DHT22;56470;47.350;8.718;2023-02-26T07:39:58;1.46;61.29
69324;DHT22;56470;47.350;8.718;2023-02-26T07:42:24;1.50;61.96
69324;DHT22;56470;47.350;8.718;2023-02-26T07:44:49;1.64;61.70
69324;DHT22;56470;47.350;8.718;2023-02-26T07:47:14;1.81;60.35
69324;DHT22;56470;47.350;8.718;2023-02-26T07:49:40;1.91;60.38
69324;DHT22;56470;47.350;8.718;2023-02-26T07:52:05;1.96;59.24
69324;DHT22;56470;47.350;8.718;2023-02-26T07:54:35;2.02;59.57
69324;DHT22;56470;47.350;8.718;2023-02-26T07:57:01;2.27;59.93
69324;DHT22;56470;47.350;8.718;2023-02-26T07:59:26;2.30;59.13
69324;DHT22;56470;47.350;8.718;2023-02-26T08:01:52;2.23;57.73
69324;DHT22;56470;47.350;8.718;2023-02-26T08:04:17;2.27;58.77
69324;DHT22;56470;47.350;8.718;2023-02-26T08:06:43;2.47;58.15
69324;DHT22;56470;47.350;8.718;2023-02-26T08:09:08;2.47;56.70
69324;DHT22;56470;47.350;8.718;2023-02-26T08:11:33;2.42;57.64
69324;DHT22;56470;47.350;8.718;2023-02-26T08:14:04;2.34;56.86
69324;DHT22;56470;47.350;8.718;2023-02-26T08:16:29;2.20;56.91
69324;DHT22;56470;47.350;8.718;2023-02-26T08:18:54;2.14;56.92
69324;DHT22;56470;47.350;8.718;2023-02-26T08:21:20;2.06;56.97
69324;DHT22;56470;47.350;8.718;2023-02-26T08:23:45;2.19;58.08
69324;DHT22;56470;47.350;8.718;2023-02-26T08:26:11;2.44;58.77
69324;DHT22;56470;47.350;8.718;2023-02-26T08:28:38;2.73;59.27
69324;DHT22;56470;47.350;8.718;2023-02-26T08:31:04;3.01;58.12
69324;DHT22;56470;47.350;8.718;2023-02-26T08:33:30;3.23;57.39
69324;DHT22;56470;47.350;8.718;2023-02-26T08:35:55;3.24;56.70
69324;DHT22;56470;47.350;8.718;2023-02-26T08:38:27;3.24;57.09
69324;DHT22;56470;47.350;8.718;2023-02-26T08:40:52;3.17;56.60
69324;DHT22;56470;47.350;8.718;2023-02-26T08:43:19;3.16;56.05
69324;DHT22;56470;47.350;8.718;2023-02-26T08:45:44;3.07;55.80
69324;DHT22;56470;47.350;8.718;2023-02-26T08:48:10;2.88;55.29
69324;DHT22;56470;47.350;8.718;2023-02-26T08:50:35;2.68;55.74
69324;DHT22;56470;47.350;8.718;2023-02-26T08:53:01;2.44;56.62
69324;DHT22;56470;47.350;8.718;2023-02-26T08:55:26;2.34;56.40
69324;DHT22;56470;47.350;8.718;2023-02-26T08:57:51;2.27;56.85
69324;DHT22;56470;47.350;8.718;2023-02-26T09:00:17;2.30;57.40
69324;DHT22;56470;47.350;8.718;2023-02-26T09:02:43;2.36;57.11
69324;DHT22;56470;47.350;8.718;2023-02-26T09:05:09;2.26;57.02
69324;DHT22;56470;47.350;8.718;2023-02-26T09:07:36;2.28;58.03
69324;DHT22;56470;47.350;8.718;2023-02-26T09:10:03;2.40;58.10
69324;DHT22;56470;47.350;8.718;2023-02-26T09:12:28;2.47;57.39
69324;DHT22;56470;47.350;8.718;2023-02-26T09:14:54;2.41;56.94
69324;DHT22;56470;47.350;8.718;2023-02-26T09:17:19;2.37;57.24
69324;DHT22;56470;47.350;8.718;2023-02-26T09:19:44;2.38;56.89
69324;DHT22;56470;47.350;8.718;2023-02-26T09:22:10;2.56;57.07
69324;DHT22;56470;47.350;8.718;2023-02-26T09:24:35;2.68;55.37
69324;DHT22;56470;47.350;8.718;2023-02-26T09:27:00;2.62;55.18
69324;DHT22;56470;47.350;8.718;2023-02-26T09:29:27;2.81;55.10
69324;DHT22;56470;47.350;8.718;2023-02-26T09:31:53;2.86;55.12
69324;DHT22;56470;47.350;8.718;2023-02-26T09:34:18;2.99;53.98
69324;DHT22;56470;47.350;8.718;2023-02-26T09:36:44;3.04;54.78
69324;DHT22;56470;47.350;8.718;2023-02-26T09:39:10;3.20;55.15
69324;DHT22;56470;47.350;8.718;2023-02-26T09:41:39;3.39;54.12
69324;DHT22;56470;47.350;8.718;2023-02-26T09:44:23;3.38;52.48
69324;DHT22;56470;47.350;8.718;2023-02-26T09:47:11;3.48;52.98
69324;DHT22;56470;47.350;8.718;2023-02-26T09:49:53;3.42;51.64
69324;DHT22;56470;47.350;8.718;2023-02-26T09:52:27;3.39;52.70
69324;DHT22;56470;47.350;8.718;2023-02-26T09:55:00;3.23;51.63
69324;DHT22;56470;47.350;8.718;2023-02-26T09:57:34;2.96;52.66
69324;DHT22;56470;47.350;8.718;2023-02-26T10:00:02;2.71;53.04
69324;DHT22;56470;47.350;8.718;2023-02-26T10:02:41;2.54;53.97
69324;DHT22;56470;47.350;8.718;2023-02-26T10:05:18;2.42;54.00
69324;DHT22;56470;47.350;8.718;2023-02-26T10:07:52;2.37;54.15
69324;DHT22;56470;47.350;8.718;2023-02-26T10:16:13;1.86;54.60
69324;DHT22;56470;47.350;8.718;2023-02-26T10:18:45;1.69;55.49
69324;DHT22;56470;47.350;8.718;2023-02-26T10:21:21;1.59;55.72
69324;DHT22;56470;47.350;8.718;2023-02-26T10:23:53;1.55;56.10
69324;DHT22;56470;47.350;8.718;2023-02-26T10:26:38;1.57;56.10
69324;DHT22;56470;47.350;8.718;2023-02-26T10:37:02;1.72;55.96
69324;DHT22;56470;47.350;8.718;2023-02-26T10:42:20;1.68;56.77
69324;DHT22;56470;47.350;8.718;2023-02-26T10:44:50;2.02;56.66
69324;DHT22;56470;47.350;8.718;2023-02-26T10:47:39;2.17;56.00
69324;DHT22;56470;47.350;8.718;2023-02-26T10:50:12;2.20;55.40
69324;DHT22;56470;47.350;8.718;2023-02-26T10:52:38;2.17;54.15
69324;DHT22;56470;47.350;8.718;2023-02-26T10:55:17;2.16;54.46
69324;DHT22;56470;47.350;8.718;2023-02-26T10:57:50;2.26;55.41
69324;DHT22;56470;47.350;8.718;2023-02-26T11:00:19;2.16;53.97
69324;DHT22;56470;47.350;8.718;2023-02-26T11:02:46;2.03;54.58
69324;DHT22;56470;47.350;8.718;2023-02-26T11:05:19;1.95;54.34
69324;DHT22;56470;47.350;8.718;2023-02-26T11:07:50;2.00;54.49
69324;DHT22;56470;47.350;8.718;2023-02-26T11:10:19;1.85;53.86
69324;DHT22;56470;47.350;8.718;2023-02-26T11:12:45;1.64;54.92
69324;DHT22;56470;47.350;8.718;2023-02-26T11:15:13;1.64;55.42
69324;DHT22;56470;47.350;8.718;2023-02-26T11:17:39;1.79;55.66
69324;DHT22;56470;47.350;8.718;2023-02-26T11:20:15;2.03;55.32
69324;DHT22;56470;47.350;8.718;2023-02-26T11:22:52;2.07;54.83
69324;DHT22;56470;47.350;8.718;2023-02-26T11:25:23;2.10;55.05
69324;DHT22;56470;47.350;8.718;2023-02-26T11:27:57;2.16;54.27
69324;DHT22;56470;47.350;8.718;2023-02-26T11:30:25;2.02;54.75
69324;DHT22;56470;47.350;8.718;2023-02-26T11:32:56;2.02;54.18
69324;DHT22;56470;47.350;8.718;2023-02-26T11:35:23;1.82;54.34
69324;DHT22;56470;47.350;8.718;2023-02-26T11:37:52;1.85;54.63
69324;DHT22;56470;47.350;8.718;2023-02-26T11:42:54;2.13;54.77
69324;DHT22;56470;47.350;8.718;2023-02-26T11:45:22;2.11;54.57
69324;DHT22;56470;47.350;8.718;2023-02-26T11:47:54;2.00;54.84
69324;DHT22;56470;47.350;8.718;2023-02-26T11:50:21;2.02;53.98
69324;DHT22;56470;47.350;8.718;2023-02-26T11:52:54;1.83;53.78
69324;DHT22;56470;47.350;8.718;2023-02-26T11:55:29;1.79;54.60
69324;DHT22;56470;47.350;8.718;2023-02-26T11:57:56;1.89;53.82
69324;DHT22;56470;47.350;8.718;2023-02-26T12:00:34;1.81;52.96
69324;DHT22;56470;47.350;8.718;2023-02-26T12:03:04;1.79;53.07
69324;DHT22;56470;47.350;8.718;2023-02-26T12:05:32;1.79;53.25
69324;DHT22;56470;47.350;8.718;2023-02-26T12:07:58;1.79;53.41
69324;DHT22;56470;47.350;8.718;2023-02-26T12:10:31;1.81;53.68
69324;DHT22;56470;47.350;8.718;2023-02-26T12:13:08;1.93;53.49
69324;DHT22;56470;47.350;8.718;2023-02-26T12:15:45;2.03;52.43
69324;DHT22;56470;47.350;8.718;2023-02-26T12:18:24;1.91;52.53
69324;DHT22;56470;47.350;8.718;2023-02-26T12:26:32;1.79;52.46
69324;DHT22;56470;47.350;8.718;2023-02-26T12:29:14;1.87;52.43
69324;DHT22;56470;47.350;8.718;2023-02-26T12:32:06;1.83;51.80
69324;DHT22;56470;47.350;8.718;2023-02-26T12:34:47;1.87;52.79
69324;DHT22;56470;47.350;8.718;2023-02-26T12:37:27;1.87;52.36
69324;DHT22;56470;47.350;8.718;2023-02-26T12:40:07;1.82;51.72
69324;DHT22;56470;47.350;8.718;2023-02-26T12:42:57;1.91;52.87
69324;DHT22;56470;47.350;8.718;2023-02-26T12:45:32;2.00;51.49
69324;DHT22;56470;47.350;8.718;2023-02-26T12:48:09;1.89;51.67
69324;DHT22;56470;47.350;8.718;2023-02-26T12:51:05;1.72;52.28
69324;DHT22;56470;47.350;8.718;2023-02-26T12:56:47;1.68;52.71
69324;DHT22;56470;47.350;8.718;2023-02-26T13:02:14;1.59;53.28
69324;DHT22;56470;47.350;8.718;2023-02-26T13:07:45;1.64;53.41
69324;DHT22;56470;47.350;8.718;2023-02-26T13:10:31;1.66;53.72
69324;DHT22;56470;47.350;8.718;2023-02-26T13:13:43;1.62;54.01
69324;DHT22;56470;47.350;8.718;2023-02-26T13:16:34;1.69;54.31
69324;DHT22;56470;47.350;8.718;2023-02-26T13:19:29;1.65;54.26
69324;DHT22;56470;47.350;8.718;2023-02-26T13:22:37;1.62;54.95
69324;DHT22;56470;47.350;8.718;2023-02-26T13:24:55;1.68;55.20
69324;DHT22;56470;47.350;8.718;2023-02-26T13:27:25;1.76;55.22
69324;DHT22;56470;47.350;8.718;2023-02-26T13:32:25;1.85;55.06
69324;DHT22;56470;47.350;8.718;2023-02-26T13:34:56;1.86;55.10
69324;DHT22;56470;47.350;8.718;2023-02-26T13:50:37;1.57;55.96
69324;DHT22;56470;47.350;8.718;2023-02-26T13:56:07;1.61;55.99
69324;DHT22;56470;47.350;8.718;2023-02-26T13:58:39;1.59;56.49
69324;DHT22;56470;47.350;8.718;2023-02-26T14:01:14;1.61;56.26
69324;DHT22;56470;47.350;8.718;2023-02-26T14:25:38;1.95;53.07
69324;DHT22;56470;47.350;8.718;2023-02-26T14:28:31;1.93;53.10
69324;DHT22;56470;47.350;8.718;2023-02-26T14:36:48;1.85;52.67
69324;DHT22;56470;47.350;8.718;2023-02-26T14:41:56;1.85;53.11
69324;DHT22;56470;47.350;8.718;2023-02-26T14:44:27;1.74;52.80
69324;DHT22;56470;47.350;8.718;2023-02-26T14:46:53;1.72;52.82
69324;DHT22;56470;47.350;8.718;2023-02-26T14:49:31;1.74;52.62
69324;DHT22;56470;47.350;8.718;2023-02-26T14:54:52;1.55;52.87
69324;DHT22;56470;47.350;8.718;2023-02-26T15:00:17;1.71;53.60
69324;DHT22;56470;47.350;8.718;2023-02-26T15:10:32;1.81;53.18
69324;DHT22;56470;47.350;8.718;2023-02-26T15:16:23;1.74;53.04
69324;DHT22;56470;47.350;8.718;2023-02-26T15:19:23;1.69;53.19
69324;DHT22;56470;47.350;8.718;2023-02-26T15:22:05;1.72;53.66
69324;DHT22;56470;47.350;8.718;2023-02-26T15:24:33;1.74;53.19
69324;DHT22;56470;47.350;8.718;2023-02-26T15:27:01;1.86;53.58
69324;DHT22;56470;47.350;8.718;2023-02-26T15:29:34;1.78;53.39
69324;DHT22;56470;47.350;8.718;2023-02-26T15:34:44;1.79;54.16
69324;DHT22;56470;47.350;8.718;2023-02-26T15:37:21;1.79;54.42
69324;DHT22;56470;47.350;8.718;2023-02-26T15:39:48;1.78;54.11
69324;DHT22;56470;47.350;8.718;2023-02-26T15:42:14;1.85;54.42
69324;DHT22;56470;47.350;8.718;2023-02-26T15:44:40;1.96;54.54
69324;DHT22;56470;47.350;8.718;2023-02-26T15:47:05;2.00;54.54
69324;DHT22;56470;47.350;8.718;2023-02-26T15:49:35;1.96;54.79
69324;DHT22;56470;47.350;8.718;2023-02-26T15:52:02;2.00;55.06
69324;DHT22;56470;47.350;8.718;2023-02-26T15:54:42;1.93;55.26
69324;DHT22;56470;47.350;8.718;2023-02-26T15:57:10;1.83;55.02
69324;DHT22;56470;47.350;8.718;2023-02-26T15:59:42;1.81;55.22
69324;DHT22;56470;47.350;8.718;2023-02-26T16:02:30;1.75;54.17
69324;DHT22;56470;47.350;8.718;2023-02-26T16:04:58;1.71;54.75
69324;DHT22;56470;47.350;8.718;2023-02-26T16:07:28;1.74;54.78
69324;DHT22;56470;47.350;8.718;2023-02-26T16:09:54;1.71;54.53
69324;DHT22;56470;47.350;8.718;2023-02-26T16:12:36;1.74;54.55
69324;DHT22;56470;47.350;8.718;2023-02-26T16:15:11;1.69;54.91
69324;DHT22;56470;47.350;8.718;2023-02-26T16:17:45;1.69;55.24
69324;DHT22;56470;47.350;8.718;2023-02-26T16:20:18;1.71;55.66
69324;DHT22;56470;47.350;8.718;2023-02-26T16:22:49;1.79;55.96
69324;DHT22;56470;47.350;8.718;2023-02-26T16:25:23;1.86;56.64
69324;DHT22;56470;47.350;8.718;2023-02-26T16:27:58;1.95;56.11
69324;DHT22;56470;47.350;8.718;2023-02-26T16:30:30;1.87;55.91
69324;DHT22;56470;47.350;8.718;2023-02-26T16:32:57;1.89;55.45
69324;DHT22;56470;47.350;8.718;2023-02-26T16:35:29;1.78;55.77
69324;DHT22;56470;47.350;8.718;2023-02-26T16:37:55;1.82;55.83
69324;DHT22;56470;47.350;8.718;2023-02-26T16:40:27;1.75;55.82
69324;DHT22;56470;47.350;8.718;2023-02-26T16:42:59;1.58;56.17
69324;DHT22;56470;47.350;8.718;2023-02-26T16:48:04;1.54;56.37
69324;DHT22;56470;47.350;8.718;2023-02-26T16:50:34;1.58;56.44
69324;DHT22;56470;47.350;8.718;2023-02-26T16:53:03;1.62;57.15
69324;DHT22;56470;47.350;8.718;2023-02-26T16:55:30;1.65;58.17
69324;DHT22;56470;47.350;8.718;2023-02-26T16:57:58;1.58;59.06
69324;DHT22;56470;47.350;8.718;2023-02-26T17:00:27;1.57;59.32
69324;DHT22;56470;47.350;8.718;2023-02-26T17:03:02;1.51;59.74
69324;DHT22;56470;47.350;8.718;2023-02-26T17:05:32;1.51;59.23
69324;DHT22;56470;47.350;8.718;2023-02-26T17:08:17;1.41;59.80
69324;DHT22;56470;47.350;8.718;2023-02-26T17:13:16;1.46;60.96
69324;DHT22;56470;47.350;8.718;2023-02-26T17:15:43;1.47;60.42
69324;DHT22;56470;47.350;8.718;2023-02-26T17:18:09;1.48;60.10
69324;DHT22;56470;47.350;8.718;2023-02-26T17:20:35;1.44;60.45
69324;DHT22;56470;47.350;8.718;2023-02-26T17:23:02;1.46;59.96
69324;DHT22;56470;47.350;8.718;2023-02-26T17:25:40;1.48;60.33
69324;DHT22;56470;47.350;8.718;2023-02-26T17:28:06;1.47;60.37
69324;DHT22;56470;47.350;8.718;2023-02-26T17:30:32;1.41;60.43
69324;DHT22;56470;47.350;8.718;2023-02-26T17:33:02;1.30;60.61
69324;DHT22;56470;47.350;8.718;2023-02-26T17:35:29;1.24;61.16
69324;DHT22;56470;47.350;8.718;2023-02-26T17:37:56;1.20;61.00
69324;DHT22;56470;47.350;8.718;2023-02-26T17:40:29;1.13;61.65
69324;DHT22;56470;47.350;8.718;2023-02-26T17:43:13;1.15;61.98
69324;DHT22;56470;47.350;8.718;2023-02-26T17:45:40;1.16;61.88
69324;DHT22;56470;47.350;8.718;2023-02-26T17:48:06;1.20;62.02
69324;DHT22;56470;47.350;8.718;2023-02-26T17:50:53;1.31;62.12
69324;DHT22;56470;47.350;8.718;2023-02-26T17:53:21;1.27;62.61
69324;DHT22;56470;47.350;8.718;2023-02-26T17:55:51;1.24;63.37
69324;DHT22;56470;47.350;8.718;2023-02-26T17:58:29;1.26;63.35
69324;DHT22;56470;47.350;8.718;2023-02-26T18:00:58;1.31;63.16
69324;DHT22;56470;47.350;8.718;2023-02-26T18:03:29;1.38;63.17
69324;DHT22;56470;47.350;8.718;2023-02-26T18:06:00;1.43;64.14
69324;DHT22;56470;47.350;8.718;2023-02-26T18:08:33;1.47;63.77
69324;DHT22;56470;47.350;8.718;2023-02-26T18:11:00;1.51;64.53
69324;DHT22;56470;47.350;8.718;2023-02-26T18:13:48;1.52;63.35
69324;DHT22;56470;47.350;8.718;2023-02-26T18:16:28;1.51;63.52